To NAV CANADA Home Page Login to a new session Search on AWWS site Disclaimer Vers la page française équivalente Tips FAQ What's new on the site To the Forecasts and Observations / NOTAM section To "File a Flight Plan" website Publications and other links Update of the User's profile FIC Telephone Numbers My Weather Data Folder Route Weather Data Regional Weather Data Local Weather Data To the Forecasts and Observations / NOTAM section
Request Generated 05/28/2022 at 22:04:40 UTC . Weather information available at that time is displayed.


Save this request - Inactive

METAR/TAF

If you find any discrepancies between the coded METAR/TAF and the plain language METAR/TAF please use the coded METAR/TAF. LWIS bulletins are not decoded in plain language.

LONDON/ON    

METAR CYXU 282200Z 29011KT 15SM FEW038 SCT210 18/08 A2993 RMK CU2CI2 SLP138 DEN TY ALT 1500FT=
METAR
LOCATION
CYXU - LONDON/ON
DATE - TIME
28 MAY 2022 - 2200 UTC
WIND
290 TRUE @ 11  KNOTS
VISIBILITY
15 STAT.  MILES
RUNWAY VISUAL RANGE
WEATHER
CLOUDINESS
FEW CLOUDS (1/8 - 2/8) 3800  FT
SCATTERED CLOUDS (3/8 - 4/8) 21000  FT
TEMP / DEWPOINT
18 C / 8 C
ALTIMETER
29.93 IN HG
RECENT WEATHER
WIND SHEAR

METAR CYXU 282100Z 27008KT 260V320 15SM BKN037 BKN220 18/11 A2992 RMK SC6CI1 SL 34 DENSITY ALT 1600FT=
METAR
LOCATION
CYXU - LONDON/ON
DATE - TIME
28 MAY 2022 - 2100 UTC
WIND
270 TRUE @ 8  KNOTS
VARIATION
260 <-> 320  DEG
VISIBILITY
15 STAT.  MILES
RUNWAY VISUAL RANGE
WEATHER
CLOUDINESS
BROKEN CLOUDS (5/8 - 7/8) 3700  FT
BROKEN CLOUDS (5/8 - 7/8) 22000  FT
TEMP / DEWPOINT
18 C / 11 C
ALTIMETER
29.92 IN HG
RECENT WEATHER
WIND SHEAR

METAR CYXU 282000Z 34007KT 290V350 15SM BKN039 19/11 A2991 RMK SC7 SLP130 DENSI ALT 1600FT=
METAR
LOCATION
CYXU - LONDON/ON
DATE - TIME
28 MAY 2022 - 2000 UTC
WIND
340 TRUE @ 7  KNOTS
VARIATION
290 <-> 350  DEG
VISIBILITY
15 STAT.  MILES
RUNWAY VISUAL RANGE
WEATHER
CLOUDINESS
BROKEN CLOUDS (5/8 - 7/8) 3900  FT
TEMP / DEWPOINT
19 C / 11 C
ALTIMETER
29.91 IN HG
RECENT WEATHER
WIND SHEAR

TAF CYXU 281740Z 2818/2918 33005KT P6SM BKN040 FM290000 VRB03KT P6SM SCT160 FM290500 18005KT P6SM FEW040 BKN100 FM291600 18010KT P6SM FEW100 RMK NXT FCST BY 290000Z=
TAF
LOCATION

CYXU - LONDON/ON
VALIDITY [UTC]
28 MAY - 1740 to
29 MAY - 1800
 
TIMES
[UTC]
WIND
[DEGREES TRUE]
VISIBILITY
[STAT. MILES]
WEATHER
CLOUDINESS
[FEET AGL]
 
28 MAY - 1800 to
29 MAY - 0000
330 @ 5 KNOTS
6+
NIL
4000 BROKEN
 
29 MAY - 0000 to
29 MAY - 0500
VARIABLE @ 3 KNOTS
6+
NIL
16000 SCATTERED
 
29 MAY - 0500 to
29 MAY - 1600
180 @ 5 KNOTS
6+
NIL
4000 FEW
10000 BROKEN
 
29 MAY - 1600 to
29 MAY - 1800
180 @ 10 KNOTS
6+
NIL
10000 FEW
REMARKS




Your time UTC time
Weather data provided by Environment Canada and NAV CANADA